Time;durP1;ratioP1;P1;durP2;ratioP2;P2;SDS_P1;SDS_P2;PMS_P1;PMS_P2;Temp;Humidity;BMP_temperature;BMP_pressure;BME280_temperature;BME280_humidity;BME280_pressure;Samples;Min_cycle;Max_cycle;Signal;HPM_P1;HPM_P2
2023/09/24 00:01:38;;;;;;;2.37;1.07;;;10.20;99.90;;;;;;5027788;28;20232;-61
2023/09/24 00:04:04;;;;;;;2.50;1.33;;;10.20;99.90;;;;;;5027898;28;20237;-62
2023/09/24 00:06:30;;;;;;;2.20;1.20;;;10.10;99.90;;;;;;5025677;28;20413;-62
2023/09/24 00:08:56;;;;;;;8.43;1.70;;;10.10;99.90;;;;;;5031052;28;20269;-61
2023/09/24 00:11:21;;;;;;;3.00;1.70;;;10.00;99.90;;;;;;5028820;28;20865;-62
2023/09/24 00:13:47;;;;;;;1.83;1.07;;;10.10;99.90;;;;;;5030611;28;20174;-62
2023/09/24 00:16:14;;;;;;;4.40;1.77;;;;;;;;;;5027001;28;20213;-61
2023/09/24 00:18:39;;;;;;;4.20;1.33;;;10.20;99.90;;;;;;5030144;28;20178;-61
2023/09/24 00:21:06;;;;;;;2.33;1.10;;;;;;;;;;5029520;28;20822;-61
2023/09/24 00:23:32;;;;;;;1.50;1.00;;;;;;;;;;5031224;28;20648;-61
2023/09/24 00:25:58;;;;;;;8.70;1.30;;;10.10;99.90;;;;;;5028021;28;20431;-61
2023/09/24 00:28:26;;;;;;;3.47;1.23;;;;;;;;;;5031738;28;20839;-62
2023/09/24 00:30:54;;;;;;;2.30;1.17;;;;;;;;;;5022647;28;20188;-62
2023/09/24 00:33:21;;;;;;;2.33;0.93;;;;;;;;;;5032569;28;20429;-61
2023/09/24 00:35:47;;;;;;;2.20;1.20;;;9.90;99.90;;;;;;5022303;28;20503;-61
2023/09/24 00:38:13;;;;;;;4.10;1.57;;;9.90;99.90;;;;;;5032179;28;20429;-61
2023/09/24 00:40:38;;;;;;;1.70;1.03;;;12.10;99.90;;;;;;5022649;28;20480;-61
2023/09/24 00:43:27;;;;;;;5.67;1.50;;;9.80;99.90;;;;;;5032018;28;20176;-62
2023/09/24 00:45:54;;;;;;;2.47;1.17;;;9.60;99.90;;;;;;5022820;28;20183;-61
2023/09/24 00:48:19;;;;;;;1.90;1.20;;;9.60;99.90;;;;;;5031625;28;20853;-62
2023/09/24 00:50:45;;;;;;;3.77;1.50;;;9.60;99.90;;;;;;5021737;28;20512;-62
2023/09/24 00:53:12;;;;;;;3.40;1.80;;;9.60;99.90;;;;;;5031797;28;20603;-61
2023/09/24 00:55:38;;;;;;;11.17;1.87;;;9.60;99.90;;;;;;5021638;28;20920;-61
2023/09/24 00:58:05;;;;;;;2.30;0.93;;;9.50;99.90;;;;;;5030790;28;20261;-61
2023/09/24 01:00:34;;;;;;;3.40;2.00;;;9.50;99.90;;;;;;5026629;28;20515;-62
2023/09/24 01:03:00;;;;;;;2.67;1.23;;;9.50;99.90;;;;;;5030342;28;20965;-62
2023/09/24 01:05:27;;;;;;;1.40;0.90;;;9.50;99.90;;;;;;5028611;28;20906;-62
2023/09/24 01:07:53;;;;;;;2.20;1.10;;;9.40;99.90;;;;;;5029668;28;20496;-62
2023/09/24 01:10:24;;;;;;;1.80;1.23;;;9.30;99.90;;;;;;5024147;28;20870;-61
2023/09/24 01:13:01;;;;;;;2.30;0.90;;;9.40;99.90;;;;;;5029954;28;20456;-61
2023/09/24 01:15:31;;;;;;;2.87;0.87;;;9.30;99.90;;;;;;5028181;28;20514;-62
2023/09/24 01:17:57;;;;;;;2.13;1.07;;;9.40;99.90;;;;;;5030045;28;20465;-62
2023/09/24 01:20:25;;;;;;;3.50;1.50;;;9.30;99.90;;;;;;5024492;28;20491;-61
2023/09/24 01:22:51;;;;;;;1.77;0.90;;;9.20;99.90;;;;;;5029529;28;20421;-62
2023/09/24 01:25:20;;;;;;;1.83;0.87;;;9.20;99.90;;;;;;5021893;28;20471;-62
2023/09/24 01:27:48;;;;;;;2.80;1.30;;;9.20;99.90;;;;;;5029353;28;20179;-62
2023/09/24 01:30:14;;;;;;;1.70;0.90;;;9.20;99.90;;;;;;5022551;28;20487;-62
2023/09/24 01:32:40;;;;;;;2.17;1.03;;;9.20;99.90;;;;;;5028018;28;20910;-62
2023/09/24 01:35:07;;;;;;;4.60;1.03;;;9.20;99.90;;;;;;5018479;28;20178;-62
2023/09/24 01:37:36;;;;;;;1.97;1.07;;;9.10;99.90;;;;;;5029624;28;20519;-61
2023/09/24 01:40:18;;;;;;;2.07;0.97;;;9.00;99.90;;;;;;5024079;28;20465;-62
2023/09/24 01:42:44;;;;;;;1.90;0.93;;;9.00;99.90;;;;;;5029749;28;20425;-62
2023/09/24 01:45:10;;;;;;;2.33;1.33;;;9.00;99.90;;;;;;5023324;28;20830;-62
2023/09/24 01:47:37;;;;;;;4.33;1.07;;;9.00;99.90;;;;;;5028693;28;20414;-62
2023/09/24 01:50:06;;;;;;;2.03;0.97;;;8.90;99.90;;;;;;5022031;28;20255;-62
2023/09/24 01:52:33;;;;;;;1.70;0.77;;;8.90;99.90;;;;;;5028977;28;20425;-61
2023/09/24 01:54:59;;;;;;;1.87;0.83;;;8.90;99.90;;;;;;5025103;28;20448;-62
2023/09/24 01:57:25;;;;;;;2.40;1.03;;;8.90;99.90;;;;;;5029169;28;20421;-62
2023/09/24 01:59:50;;;;;;;1.83;1.10;;;8.90;99.90;;;;;;5026661;28;20529;-62
2023/09/24 02:02:16;;;;;;;1.47;0.80;;;8.80;99.90;;;;;;5027155;28;20182;-62
2023/09/24 02:04:42;;;;;;;1.73;0.90;;;8.80;99.90;;;;;;5027447;28;20186;-62
2023/09/24 02:07:08;;;;;;;1.30;0.60;;;8.80;99.90;;;;;;5029632;28;20174;-62
2023/09/24 02:09:35;;;;;;;1.93;0.90;;;8.70;99.90;;;;;;5023422;28;20191;-62
2023/09/24 02:12:01;;;;;;;1.30;0.70;;;8.70;99.90;;;;;;5028151;28;20444;-62
2023/09/24 02:14:26;;;;;;;1.87;0.70;;;8.70;99.90;;;;;;5023713;28;21532;-61
2023/09/24 02:16:52;;;;;;;1.67;0.80;;;8.70;99.90;;;;;;5028026;28;20183;-62
2023/09/24 02:19:17;;;;;;;1.80;0.90;;;8.70;99.90;;;;;;5023967;28;20210;-62
2023/09/24 02:21:43;;;;;;;3.57;1.50;;;8.60;99.90;;;;;;5025477;28;20193;-62
2023/09/24 02:24:10;;;;;;;4.57;0.90;;;8.70;99.90;;;;;;5025343;28;20186;-62
2023/09/24 02:26:35;;;;;;;1.80;1.00;;;8.70;99.90;;;;;;5024654;28;20273;-62
2023/09/24 02:29:01;;;;;;;2.47;1.00;;;8.70;99.90;;;;;;5034690;28;20782;-62
2023/09/24 02:31:27;;;;;;;3.93;1.10;;;8.70;99.90;;;;;;5022756;28;20224;-62
2023/09/24 02:33:52;;;;;;;1.43;0.63;;;8.60;99.90;;;;;;5027784;28;20187;-62
2023/09/24 02:36:18;;;;;;;2.13;1.03;;;8.60;99.90;;;;;;5021758;28;20198;-62
2023/09/24 02:38:44;;;;;;;2.23;1.10;;;8.50;99.90;;;;;;5028851;28;20192;-62
2023/09/24 02:41:11;;;;;;;3.83;0.80;;;8.40;99.90;;;;;;5021997;28;20208;-62
2023/09/24 02:43:37;;;;;;;1.40;0.80;;;8.40;99.90;;;;;;5028232;28;20432;-62
2023/09/24 02:46:04;;;;;;;2.70;1.10;;;8.40;99.90;;;;;;5024476;28;20750;-62
2023/09/24 02:48:30;;;;;;;8.87;1.00;;;8.30;99.90;;;;;;5032405;28;20424;-62
2023/09/24 02:50:56;;;;;;;2.07;1.00;;;8.20;99.90;;;;;;5025910;28;20425;-62
2023/09/24 02:53:22;;;;;;;7.27;0.80;;;8.20;99.90;;;;;;5033534;28;20187;-62
2023/09/24 02:55:47;;;;;;;2.13;0.80;;;8.10;99.90;;;;;;5026260;28;20558;-62
2023/09/24 02:58:14;;;;;;;1.47;0.70;;;8.10;99.90;;;;;;5032992;28;20233;-62
2023/09/24 03:00:41;;;;;;;1.50;0.87;;;8.10;99.90;;;;;;5028168;28;20628;-62
2023/09/24 03:03:09;;;;;;;2.80;0.93;;;8.10;99.90;;;;;;5026081;28;20776;-62
2023/09/24 03:05:35;;;;;;;1.50;0.80;;;8.10;99.90;;;;;;5030178;28;20463;-62
2023/09/24 03:08:02;;;;;;;1.73;0.80;;;8.10;99.90;;;;;;5033688;28;20450;-62
2023/09/24 03:10:35;;;;;;;2.87;1.23;;;8.10;99.90;;;;;;5025262;28;20436;-62
2023/09/24 03:13:04;;;;;;;2.03;1.17;;;8.10;99.90;;;;;;5033003;28;20498;-62
2023/09/24 03:15:30;;;;;;;2.87;1.03;;;8.10;99.90;;;;;;5024162;28;20467;-62
2023/09/24 03:17:55;;;;;;;2.80;1.37;;;8.10;99.90;;;;;;5032043;28;20421;-62
2023/09/24 03:20:21;;;;;;;1.63;0.90;;;8.10;99.90;;;;;;5024317;28;20305;-62
2023/09/24 03:23:08;;;;;;;1.80;0.80;;;8.10;99.90;;;;;;5031608;28;20194;-62
2023/09/24 03:25:34;;;;;;;2.57;0.87;;;8.00;99.90;;;;;;5022920;28;20221;-62
2023/09/24 03:28:03;;;;;;;1.93;1.00;;;8.10;99.90;;;;;;5032348;28;20417;-62
2023/09/24 03:30:29;;;;;;;1.50;0.60;;;8.10;99.90;;;;;;5024357;28;20435;-62
2023/09/24 03:32:55;;;;;;;3.43;1.23;;;8.00;99.90;;;;;;5031895;28;20431;-62
2023/09/24 03:35:23;;;;;;;4.17;1.20;;;8.00;99.90;;;;;;5024268;28;21031;-62
2023/09/24 03:37:50;;;;;;;1.30;0.70;;;7.90;99.90;;;;;;5031249;28;20449;-62
2023/09/24 03:40:20;;;;;;;1.63;0.73;;;7.90;99.90;;;;;;5029330;28;20498;-62
2023/09/24 03:42:49;;;;;;;1.83;0.70;;;7.80;99.90;;;;;;5033768;28;20957;-62
2023/09/24 03:45:16;;;;;;;1.80;0.90;;;7.80;99.90;;;;;;5025081;28;20433;-62
2023/09/24 03:47:43;;;;;;;1.50;0.80;;;7.70;99.90;;;;;;5031195;28;20417;-62
2023/09/24 03:50:13;;;;;;;1.67;0.80;;;7.70;99.90;;;;;;5026168;28;20440;-62
2023/09/24 03:52:41;;;;;;;3.40;1.13;;;7.70;99.90;;;;;;5031161;28;20424;-62
2023/09/24 03:55:08;;;;;;;2.23;1.40;;;7.60;99.90;;;;;;5025845;28;20440;-62
2023/09/24 03:57:34;;;;;;;1.77;0.93;;;7.70;99.90;;;;;;5030561;28;20483;-62
2023/09/24 04:00:00;;;;;;;2.10;1.07;;;7.70;99.90;;;;;;5028242;28;20492;-62
2023/09/24 04:02:28;;;;;;;2.03;1.03;;;7.60;99.90;;;;;;5030662;28;20194;-62
2023/09/24 04:04:54;;;;;;;2.23;1.00;;;7.60;99.90;;;;;;5029494;28;20178;-62
2023/09/24 04:07:20;;;;;;;2.13;0.97;;;7.60;99.90;;;;;;5030472;28;20783;-62
2023/09/24 04:09:47;;;;;;;1.60;0.90;;;7.60;99.90;;;;;;5024870;28;20616;-62
2023/09/24 04:12:13;;;;;;;2.80;1.00;;;7.60;99.90;;;;;;5030855;28;20421;-62
2023/09/24 04:14:39;;;;;;;2.30;1.03;;;7.60;99.90;;;;;;5025106;28;20832;-62
2023/09/24 04:17:09;;;;;;;1.50;0.97;;;7.70;99.90;;;;;;5030146;28;20178;-62
2023/09/24 04:19:35;;;;;;;2.87;1.20;;;7.60;99.90;;;;;;5028207;28;20460;-62
2023/09/24 04:22:00;;;;;;;1.40;0.77;;;7.50;99.90;;;;;;5029821;28;20417;-62
2023/09/24 04:24:26;;;;;;;1.40;0.70;;;7.60;99.90;;;;;;5026119;28;20178;-62
2023/09/24 04:26:52;;;;;;;2.20;0.83;;;7.50;99.90;;;;;;5028459;28;20673;-62
2023/09/24 04:29:18;;;;;;;1.60;0.87;;;7.40;99.90;;;;;;5026687;28;20187;-62
2023/09/24 04:31:44;;;;;;;1.70;0.87;;;7.40;99.90;;;;;;5026877;28;20425;-62
2023/09/24 04:34:12;;;;;;;1.77;1.10;;;7.40;99.90;;;;;;5027937;28;20429;-62
2023/09/24 04:36:39;;;;;;;2.17;0.93;;;7.40;99.90;;;;;;5025872;28;20233;-62
2023/09/24 04:39:06;;;;;;;1.20;0.60;;;7.30;99.90;;;;;;5028660;28;20433;-62
2023/09/24 04:41:32;;;;;;;1.30;0.63;;;7.40;99.90;;;;;;5025565;28;21143;-62
2023/09/24 04:43:58;;;;;;;4.17;1.70;;;7.40;99.90;;;;;;5030257;28;20793;-62
2023/09/24 04:46:25;;;;;;;4.90;1.17;;;7.40;99.90;;;;;;5028568;28;20418;-62
2023/09/24 04:48:51;;;;;;;1.83;0.93;;;7.40;99.90;;;;;;5030544;28;20205;-62
2023/09/24 04:51:16;;;;;;;3.07;1.00;;;7.40;99.90;;;;;;5025734;28;20425;-62
2023/09/24 04:53:42;;;;;;;2.03;1.17;;;7.30;99.90;;;;;;5030149;28;20644;-62
2023/09/24 04:56:08;;;;;;;1.90;0.90;;;7.30;99.90;;;;;;5040912;23;20292;-62
2023/09/24 04:58:35;;;;;;;2.57;1.00;;;7.20;99.90;;;;;;5030856;28;20182;-62
2023/09/24 05:01:07;;;;;;;5.53;1.60;;;7.30;99.90;;;;;;5031426;28;20469;-62
2023/09/24 05:03:37;;;;;;;3.20;1.00;;;7.30;99.90;;;;;;5031103;28;20496;-62
2023/09/24 05:06:05;;;;;;;1.83;1.00;;;7.20;99.90;;;;;;5030920;28;21044;-62
2023/09/24 05:08:34;;;;;;;1.70;0.87;;;7.30;99.90;;;;;;5031207;28;20409;-62
2023/09/24 05:11:02;;;;;;;2.53;1.10;;;7.30;99.90;;;;;;5030052;28;20429;-61
2023/09/24 05:13:28;;;;;;;1.30;0.70;;;7.20;99.90;;;;;;5031273;28;20905;-61
2023/09/24 05:15:57;;;;;;;2.17;1.00;;;7.20;99.90;;;;;;5027706;28;20437;-62
2023/09/24 05:18:23;;;;;;;2.00;0.90;;;7.20;99.90;;;;;;5031549;28;20201;-61
2023/09/24 05:20:49;;;;;;;2.43;1.37;;;7.30;99.90;;;;;;5028558;28;20558;-61
2023/09/24 05:23:15;;;;;;;7.60;1.40;;;7.30;99.90;;;;;;5032276;28;20448;-62
2023/09/24 05:25:41;;;;;;;1.90;1.00;;;7.20;99.90;;;;;;5027601;28;20248;-61
2023/09/24 05:28:06;;;;;;;2.70;1.17;;;7.20;99.90;;;;;;5031552;28;20424;-61
2023/09/24 05:30:32;;;;;;;1.90;1.07;;;7.20;99.90;;;;;;5027069;28;20452;-61
2023/09/24 05:32:58;;;;;;;1.90;1.23;;;7.30;99.90;;;;;;5031940;28;20278;-61
2023/09/24 05:35:24;;;;;;;1.60;1.00;;;7.30;99.90;;;;;;5029776;28;20685;-61
2023/09/24 05:37:50;;;;;;;2.33;1.60;;;7.50;99.90;;;;;;5031772;28;20205;-61
2023/09/24 05:40:16;;;;;;;2.57;1.30;;;7.40;99.90;;;;;;5029147;28;20951;-61
2023/09/24 05:42:41;;;;;;;1.60;1.00;;;7.40;99.90;;;;;;5031872;28;20425;-61
2023/09/24 05:45:08;;;;;;;5.40;1.20;;;7.40;99.90;;;;;;5028917;28;20920;-61
2023/09/24 05:47:33;;;;;;;2.23;1.13;;;7.40;99.90;;;;;;5031004;28;20182;-61
2023/09/24 05:50:01;;;;;;;2.20;1.23;;;7.40;99.90;;;;;;5029541;28;20469;-61
2023/09/24 05:52:27;;;;;;;2.60;1.50;;;7.40;99.90;;;;;;5031606;28;20558;-62
2023/09/24 05:54:53;;;;;;;2.87;1.20;;;7.30;99.90;;;;;;5028523;28;20425;-61
2023/09/24 05:57:18;;;;;;;2.30;1.00;;;7.20;99.90;;;;;;5031380;28;20198;-61
2023/09/24 05:59:44;;;;;;;1.93;1.07;;;7.30;99.90;;;;;;5028843;28;20214;-61
2023/09/24 06:02:10;;;;;;;1.87;1.10;;;7.40;99.90;;;;;;5030953;28;20179;-61
2023/09/24 06:04:36;;;;;;;2.57;1.30;;;7.40;99.90;;;;;;5029475;28;20186;-61
2023/09/24 06:07:02;;;;;;;1.80;1.23;;;7.40;99.90;;;;;;5030099;28;20518;-61
2023/09/24 06:09:31;;;;;;;3.40;1.30;;;7.40;99.90;;;;;;5029019;28;20786;-61
2023/09/24 06:11:56;;;;;;;2.60;1.40;;;7.50;99.90;;;;;;5030594;28;20186;-61
2023/09/24 06:14:22;;;;;;;2.13;1.13;;;7.60;99.90;;;;;;5028980;28;20792;-61
2023/09/24 06:16:48;;;;;;;2.73;1.40;;;7.70;99.90;;;;;;5028246;28;20221;-61
2023/09/24 06:19:13;;;;;;;2.90;1.47;;;7.80;99.90;;;;;;5030736;28;20224;-61
2023/09/24 06:21:39;;;;;;;1.77;0.97;;;7.80;99.90;;;;;;5032538;28;20373;-61
2023/09/24 06:24:05;;;;;;;2.40;1.20;;;7.90;99.90;;;;;;5032997;28;20189;-61
2023/09/24 06:26:31;;;;;;;2.03;0.97;;;7.90;99.90;;;;;;5024810;28;20214;-61
2023/09/24 06:28:57;;;;;;;2.07;1.10;;;8.00;99.90;;;;;;5024726;28;20504;-62
2023/09/24 06:31:22;;;;;;;2.47;1.53;;;8.00;99.90;;;;;;5032428;28;20186;-61
2023/09/24 06:33:48;;;;;;;4.33;1.67;;;8.00;99.90;;;;;;5028605;28;20191;-61
2023/09/24 06:36:14;;;;;;;2.87;1.33;;;8.10;99.90;;;;;;5031543;28;20236;-61
2023/09/24 06:38:39;;;;;;;4.83;1.73;;;8.20;99.90;;;;;;5034260;28;20193;-61
2023/09/24 06:41:05;;;;;;;2.87;1.57;;;8.20;99.90;;;;;;5030883;28;20658;-61
2023/09/24 06:43:32;;;;;;;3.60;1.40;;;8.30;99.90;;;;;;5034009;28;20305;-61
2023/09/24 06:45:58;;;;;;;2.07;0.90;;;8.30;99.90;;;;;;5033527;28;20183;-64
2023/09/24 06:48:24;;;;;;;2.63;1.50;;;8.40;99.90;;;;;;5034537;28;20428;-63
2023/09/24 06:50:51;;;;;;;3.10;1.43;;;8.40;99.90;;;;;;5026733;28;20198;-63
2023/09/24 06:53:17;;;;;;;3.67;1.63;;;8.60;99.90;;;;;;5033549;28;20894;-63
2023/09/24 06:55:43;;;;;;;3.27;1.77;;;8.70;99.90;;;;;;5024104;28;20780;-63
2023/09/24 06:58:09;;;;;;;4.87;1.80;;;8.90;99.90;;;;;;5027881;28;20431;-62
2023/09/24 07:00:34;;;;;;;2.40;1.40;;;9.10;99.90;;;;;;5027172;28;20214;-63
2023/09/24 07:03:00;;;;;;;2.37;1.10;;;9.20;99.90;;;;;;5028377;28;20265;-63
2023/09/24 07:05:26;;;;;;;2.70;1.03;;;9.30;99.90;;;;;;5026547;28;20182;-63
2023/09/24 07:07:52;;;;;;;2.30;1.43;;;9.40;99.90;;;;;;5027617;28;20183;-63
2023/09/24 07:10:20;;;;;;;1.73;1.20;;;9.60;99.90;;;;;;5026985;28;20507;-63
2023/09/24 07:12:46;;;;;;;2.43;1.27;;;9.90;99.90;;;;;;5027423;28;20609;-63
2023/09/24 07:15:11;;;;;;;2.83;1.20;;;10.20;99.90;;;;;;5029589;28;20432;-63
2023/09/24 07:17:37;;;;;;;1.87;1.10;;;10.50;99.90;;;;;;5032898;28;20236;-63
2023/09/24 07:20:04;;;;;;;11.37;1.80;;;10.70;99.90;;;;;;5029427;28;20214;-63
2023/09/24 07:22:30;;;;;;;5.00;1.03;;;11.10;99.90;;;;;;5026550;28;20499;-63
2023/09/24 07:24:56;;;;;;;4.67;2.03;;;11.60;99.90;;;;;;5025429;28;20439;-63
2023/09/24 07:27:24;;;;;;;5.70;1.10;;;12.20;99.90;;;;;;5029262;28;20661;-63
2023/09/24 07:29:49;;;;;;;3.80;0.93;;;12.90;99.90;;;;;;5025593;28;20429;-63
2023/09/24 07:32:15;;;;;;;3.43;1.60;;;13.50;99.90;;;;;;5022142;28;20767;-63
2023/09/24 07:34:41;;;;;;;2.77;1.27;;;13.90;99.90;;;;;;5023245;28;20186;-63
2023/09/24 07:37:08;;;;;;;4.43;1.10;;;14.30;99.90;;;;;;5033154;28;20194;-63
2023/09/24 07:39:35;;;;;;;2.47;1.10;;;14.50;99.90;;;;;;5026999;28;20608;-63
2023/09/24 07:42:00;;;;;;;3.40;1.00;;;14.80;99.90;;;;;;5028076;28;20908;-63
2023/09/24 07:44:26;;;;;;;2.47;1.20;;;15.30;99.90;;;;;;5024714;28;20425;-63
2023/09/24 07:46:53;;;;;;;1.80;1.07;;;16.00;99.90;;;;;;5029303;28;20607;-63
2023/09/24 07:49:18;;;;;;;3.07;1.20;;;16.50;99.90;;;;;;5028759;28;20179;-63
2023/09/24 07:51:44;;;;;;;2.87;1.33;;;16.80;99.90;;;;;;5028064;28;20421;-63
2023/09/24 07:54:10;;;;;;;7.87;1.30;;;17.20;99.90;;;;;;5028971;28;20240;-63
2023/09/24 07:56:40;;;;;;;2.90;0.87;;;17.10;99.90;;;;;;5024546;28;20698;-63
2023/09/24 07:59:06;;;;;;;1.60;0.80;;;17.30;99.90;;;;;;5024973;28;20277;-63
2023/09/24 08:01:32;;;;;;;1.60;0.83;;;17.70;99.90;;;;;;5026271;28;20430;-63
2023/09/24 08:03:58;;;;;;;1.90;1.00;;;17.90;99.30;;;;;;5029671;28;20437;-63
2023/09/24 08:06:23;;;;;;;3.93;1.33;;;17.90;98.90;;;;;;5033092;28;20250;-63
2023/09/24 08:08:49;;;;;;;3.50;1.20;;;18.00;99.00;;;;;;5032770;28;20178;-63
2023/09/24 08:11:15;;;;;;;6.70;0.97;;;18.10;98.10;;;;;;5031586;28;20224;-63
2023/09/24 08:13:40;;;;;;;2.47;1.00;;;17.80;98.90;;;;;;5031030;28;20174;-63
2023/09/24 08:16:06;;;;;;;3.10;1.43;;;17.40;99.20;;;;;;5029890;28;20218;-63
2023/09/24 08:18:31;;;;;;;1.93;0.90;;;17.30;99.20;;;;;;5032045;28;20560;-63
2023/09/24 08:20:58;;;;;;;1.93;0.87;;;16.90;98.60;;;;;;5030206;28;20285;-63
2023/09/24 08:23:23;;;;;;;3.20;0.90;;;17.00;99.10;;;;;;5032736;28;20265;-63
2023/09/24 08:25:52;;;;;;;2.13;0.97;;;17.10;99.20;;;;;;5028298;28;20922;-63
2023/09/24 08:28:18;;;;;;;2.70;0.90;;;16.90;98.60;;;;;;5032421;28;20372;-63
2023/09/24 08:30:44;;;;;;;2.00;0.97;;;16.90;99.00;;;;;;5026843;28;21232;-63
2023/09/24 08:33:10;;;;;;;4.37;1.20;;;17.20;98.70;;;;;;5028854;28;20801;-63
2023/09/24 08:35:37;;;;;;;2.27;1.10;;;17.40;98.50;;;;;;5019459;28;20422;-63
2023/09/24 08:38:03;;;;;;;3.83;0.90;;;17.50;98.20;;;;;;5032361;28;20194;-63
2023/09/24 08:40:30;;;;;;;2.90;1.13;;;17.50;98.00;;;;;;5027882;28;20452;-63
2023/09/24 08:42:57;;;;;;;1.70;0.90;;;17.50;97.60;;;;;;5032075;28;20178;-63
2023/09/24 08:45:29;;;;;;;2.40;1.20;;;17.60;97.90;;;;;;5024545;28;21436;-63
2023/09/24 08:47:55;;;;;;;4.77;1.10;;;17.60;97.90;;;;;;5030477;28;20479;-63
2023/09/24 08:50:21;;;;;;;7.23;1.50;;;17.80;97.50;;;;;;5030469;28;20463;-63
2023/09/24 08:52:47;;;;;;;3.93;1.07;;;18.00;97.60;;;;;;5032043;28;20925;-63
2023/09/24 08:55:14;;;;;;;2.53;0.90;;;18.10;97.10;;;;;;5030125;28;20513;-63
2023/09/24 08:57:42;;;;;;;3.60;1.30;;;18.00;96.60;;;;;;5030693;28;20198;-63
2023/09/24 09:00:10;;;;;;;9.60;1.53;;;18.10;96.60;;;;;;5026919;28;20493;-63
2023/09/24 09:02:36;;;;;;;1.67;0.80;;;18.20;96.40;;;;;;5029194;28;20412;-63
2023/09/24 09:05:12;;;;;;;1.97;0.90;;;18.10;96.80;;;;;;5030239;28;20425;-63
2023/09/24 09:07:56;;;;;;;6.30;1.40;;;17.80;97.20;;;;;;5031419;28;20410;-63
2023/09/24 09:10:29;;;;;;;4.10;1.27;;;17.90;96.80;;;;;;5025808;28;20547;-63
2023/09/24 09:13:08;;;;;;;2.27;1.07;;;18.40;96.30;;;;;;5029981;28;20417;-63
2023/09/24 09:15:35;;;;;;;1.60;0.90;;;18.00;94.60;;;;;;5025632;28;20543;-63
2023/09/24 09:18:00;;;;;;;17.33;1.37;;;18.10;95.80;;;;;;5031869;28;20534;-63
2023/09/24 09:20:43;;;;;;;3.23;1.03;;;18.00;96.40;;;;;;5026935;28;20559;-63
2023/09/24 09:23:13;;;;;;;4.53;1.13;;;18.60;95.30;;;;;;5024012;28;20178;-63
2023/09/24 09:25:52;;;;;;;1.80;0.80;;;18.90;94.40;;;;;;5027405;28;20905;-62
2023/09/24 09:28:23;;;;;;;6.80;1.33;;;18.60;94.30;;;;;;5025801;28;20408;-61
2023/09/24 09:30:58;;;;;;;1.97;0.80;;;18.70;94.90;;;;;;5027291;28;20420;-60
2023/09/24 09:33:25;;;;;;;3.47;1.30;;;18.40;93.80;;;;;;5031520;28;20414;-60
2023/09/24 09:35:51;;;;;;;3.43;1.00;;;17.80;94.70;;;;;;5028315;28;20419;-60
2023/09/24 09:38:17;;;;;;;2.20;1.00;;;17.50;94.40;;;;;;5031904;28;20417;-60
2023/09/24 09:40:43;;;;;;;2.47;0.93;;;17.50;94.80;;;;;;5029119;28;20460;-60
2023/09/24 09:43:12;;;;;;;1.60;0.63;;;17.30;96.00;;;;;;5028063;28;20515;-61
2023/09/24 09:45:39;;;;;;;2.33;1.07;;;17.30;95.80;;;;;;5028723;28;20421;-61
2023/09/24 09:48:07;;;;;;;1.97;0.90;;;16.90;96.70;;;;;;5031545;28;20457;-60
2023/09/24 09:50:40;;;;;;;1.80;0.90;;;16.80;97.10;;;;;;5028379;28;20431;-60
2023/09/24 09:53:10;;;;;;;3.53;1.13;;;16.80;98.00;;;;;;5030682;28;21111;-60
2023/09/24 09:55:42;;;;;;;3.80;1.33;;;16.80;97.40;;;;;;5027833;28;20475;-60
2023/09/24 09:58:09;;;;;;;1.60;0.90;;;16.90;96.40;;;;;;5030265;28;20429;-60
2023/09/24 10:00:35;;;;;;;1.63;0.70;;;16.80;97.00;;;;;;5028792;28;20473;-60
2023/09/24 10:03:02;;;;;;;2.53;1.10;;;16.60;97.10;;;;;;5030707;28;20475;-60
2023/09/24 10:05:28;;;;;;;3.53;1.13;;;16.50;97.10;;;;;;5027877;28;20855;-60
2023/09/24 10:07:54;;;;;;;1.97;1.00;;;16.40;96.90;;;;;;5029258;28;20464;-61
2023/09/24 10:10:32;;;;;;;1.97;1.10;;;16.70;97.50;;;;;;5027998;28;20421;-61
2023/09/24 10:13:05;;;;;;;2.70;1.00;;;16.90;97.50;;;;;;5029969;28;20178;-60
2023/09/24 10:15:31;;;;;;;2.13;0.80;;;17.10;96.60;;;;;;5025880;28;20978;-61
2023/09/24 10:18:11;;;;;;;5.00;1.43;;;16.90;97.00;;;;;;5028645;28;20437;-60
2023/09/24 10:20:49;;;;;;;2.80;0.97;;;17.00;96.90;;;;;;5019575;28;20836;-60
2023/09/24 10:23:29;;;;;;;2.77;1.43;;;16.90;97.10;;;;;;5027464;28;20817;-60
2023/09/24 10:26:00;;;;;;;2.80;1.10;;;17.00;97.20;;;;;;5024669;28;20448;-60
2023/09/24 10:28:51;;;;;;;2.63;0.83;;;17.20;96.50;;;;;;5029133;28;20414;-60
2023/09/24 10:31:20;;;;;;;5.90;1.97;;;17.40;96.00;;;;;;5021394;28;20456;-60
2023/09/24 10:34:02;;;;;;;3.80;1.80;;;17.60;95.10;;;;;;5027728;28;20447;-60
2023/09/24 10:36:30;;;;;;;7.03;1.27;;;17.30;95.60;;;;;;5022344;28;20421;-60
2023/09/24 10:39:04;;;;;;;5.87;1.30;;;17.20;95.40;;;;;;5025654;28;20425;-60
2023/09/24 10:41:31;;;;;;;3.47;1.20;;;17.20;94.40;;;;;;5020649;28;20502;-60
2023/09/24 10:44:25;;;;;;;5.30;2.30;;;17.20;95.60;;;;;;5025022;28;20848;-60
2023/09/24 10:46:52;;;;;;;5.33;1.57;;;17.30;95.00;;;;;;5025416;28;20413;-60
2023/09/24 10:49:21;;;;;;;3.40;1.43;;;17.40;95.20;;;;;;5027802;28;20416;-60
2023/09/24 10:51:50;;;;;;;8.23;3.70;;;17.40;95.10;;;;;;5027601;28;20405;-60
2023/09/24 10:54:16;;;;;;;2.43;1.57;;;17.70;94.60;;;;;;5027313;28;20432;-60
2023/09/24 10:56:49;;;;;;;2.43;1.13;;;17.60;93.60;;;;;;5026611;28;20433;-60
2023/09/24 10:59:15;;;;;;;9.67;1.40;;;18.00;93.50;;;;;;5022174;28;20504;-60
2023/09/24 11:01:44;;;;;;;5.53;1.43;;;18.00;93.80;;;;;;5029217;28;20440;-61
2023/09/24 11:04:10;;;;;;;1.60;0.90;;;18.20;93.60;;;;;;5024839;28;20423;-60
2023/09/24 11:06:36;;;;;;;2.40;0.70;;;18.40;93.40;;;;;;5032060;28;20413;-60
2023/09/24 11:09:18;;;;;;;2.50;1.03;;;18.10;93.20;;;;;;5031876;28;20650;-60
2023/09/24 11:11:44;;;;;;;3.20;1.10;;;18.40;92.10;;;;;;5030829;28;20412;-60
2023/09/24 11:14:14;;;;;;;2.17;1.20;;;18.60;92.50;;;;;;5027739;28;20452;-60
2023/09/24 11:16:39;;;;;;;6.83;1.53;;;18.90;91.40;;;;;;5028958;28;20416;-60
2023/09/24 11:19:05;;;;;;;3.50;1.73;;;18.70;92.30;;;;;;5030338;28;20425;-60
2023/09/24 11:21:31;;;;;;;3.00;1.10;;;18.90;91.90;;;;;;5028287;28;20301;-60
2023/09/24 11:23:57;;;;;;;3.20;1.07;;;18.70;92.10;;;;;;5025416;28;20197;-60
2023/09/24 11:26:29;;;;;;;6.07;1.13;;;18.70;93.30;;;;;;5024004;28;20828;-60
2023/09/24 11:28:57;;;;;;;2.33;0.90;;;18.90;91.90;;;;;;5022461;28;20190;-60
2023/09/24 11:31:24;;;;;;;2.00;0.80;;;18.70;92.30;;;;;;5028726;28;20417;-60
2023/09/24 11:33:56;;;;;;;3.13;1.20;;;18.80;91.60;;;;;;5031082;28;20520;-60
2023/09/24 11:36:27;;;;;;;3.03;1.20;;;18.80;92.70;;;;;;5029876;28;20429;-61
2023/09/24 11:38:59;;;;;;;4.17;1.53;;;19.00;91.80;;;;;;5022000;28;20433;-61
2023/09/24 11:41:24;;;;;;;5.27;1.40;;;18.90;92.20;;;;;;5022645;28;20862;-60
2023/09/24 11:43:57;;;;;;;3.13;1.03;;;19.20;91.90;;;;;;5030342;28;20458;-60
2023/09/24 11:46:28;;;;;;;2.00;1.03;;;19.10;91.00;;;;;;5028117;28;20181;-60
2023/09/24 11:48:59;;;;;;;2.77;1.30;;;18.90;91.20;;;;;;5028258;28;20418;-62
2023/09/24 11:51:25;;;;;;;2.80;0.97;;;19.10;90.70;;;;;;5024656;28;20413;-62
2023/09/24 11:53:51;;;;;;;3.30;1.40;;;19.30;91.90;;;;;;5025793;28;20429;-62
2023/09/24 11:56:17;;;;;;;1.80;1.00;;;19.30;91.90;;;;;;5025829;28;20483;-62
2023/09/24 11:58:43;;;;;;;2.10;1.00;;;19.50;90.70;;;;;;5030365;28;20258;-62
2023/09/24 12:01:10;;;;;;;2.50;1.20;;;19.40;90.40;;;;;;5031869;28;20651;-62
2023/09/24 12:03:35;;;;;;;2.20;0.73;;;19.30;89.70;;;;;;5031332;28;20217;-61
2023/09/24 12:06:03;;;;;;;2.63;0.77;;;19.10;89.30;;;;;;5024911;28;20429;-61
2023/09/24 12:08:28;;;;;;;1.77;0.87;;;19.10;91.20;;;;;;5032303;28;20504;-62
2023/09/24 12:10:54;;;;;;;2.30;0.70;;;19.30;91.00;;;;;;5026834;28;20417;-62
2023/09/24 12:13:20;;;;;;;3.87;1.00;;;19.50;91.90;;;;;;5032946;28;20315;-62
2023/09/24 12:15:46;;;;;;;1.40;0.60;;;19.90;91.50;;;;;;5025719;28;20532;-62
2023/09/24 12:18:12;;;;;;;1.50;0.60;;;20.10;88.70;;;;;;5031752;28;20441;-62
2023/09/24 12:20:40;;;;;;;2.93;1.00;;;20.10;88.50;;;;;;5026863;28;20663;-62
2023/09/24 12:23:07;;;;;;;3.20;1.00;;;20.00;85.80;;;;;;5032276;28;20420;-62
2023/09/24 12:25:37;;;;;;;5.97;0.90;;;20.00;89.50;;;;;;5023925;28;20463;-62
2023/09/24 12:28:04;;;;;;;1.97;0.80;;;20.20;87.70;;;;;;5032278;28;20905;-62
2023/09/24 12:30:29;;;;;;;3.77;1.17;;;19.70;86.90;;;;;;5025853;28;20421;-62
2023/09/24 12:32:55;;;;;;;2.73;1.17;;;19.40;84.80;;;;;;5023724;28;20937;-62
2023/09/24 12:35:20;;;;;;;1.67;0.87;;;19.50;83.10;;;;;;5027556;28;20198;-61
2023/09/24 12:37:46;;;;;;;2.17;0.93;;;19.70;86.10;;;;;;5023808;28;20277;-61
2023/09/24 12:40:13;;;;;;;4.30;1.10;;;19.50;88.70;;;;;;5027730;28;20706;-62
2023/09/24 12:42:40;;;;;;;2.50;1.10;;;19.60;89.90;;;;;;5028443;28;20170;-62
2023/09/24 12:45:10;;;;;;;2.03;0.90;;;20.00;86.50;;;;;;5028648;28;20457;-62
2023/09/24 12:47:36;;;;;;;3.07;0.93;;;19.90;84.20;;;;;;5031210;28;20451;-62
2023/09/24 12:50:06;;;;;;;2.70;0.93;;;19.80;82.90;;;;;;5024193;28;20432;-62
2023/09/24 12:52:39;;;;;;;2.53;0.90;;;20.00;83.70;;;;;;5025360;28;20460;-62
2023/09/24 12:55:08;;;;;;;1.80;0.90;;;20.00;83.70;;;;;;5024854;28;20432;-62